Stockholm, New Jersey
Current Conditions -  °F | °C
As of 7:53 AM on Friday 24 Oct 2014 (Local Time) from KFWN Reporting Station
Overcast Overcast  
Wind Chill: 52°   Ceiling: 2300
Heat Index: 52°   Visibility: 10mi
Dew Point: 42°   Wind: 8mph
Humidity: 69%   Direction: 360°N
Pressure: 29.85"   Gusts: 17mph
Location:  41.09°N, 74.52°W
Report Text: KFWN 241153Z AUTO 36007G15KT 10SM OVC023 11/06 A2985 RMK AO2 SLP107 60000 70010 T01110056 10117 20106 53012
Loading
Personal Weather Stations






























Interactive Weather Map
Tropical Storm Tracking
New forecast layout! Learn more

10-Day Weather Forecast

Advertisements
Track Severe Weather on mobile